sensor_id;sensor_type;location;lat;lon;timestamp;pressure;altitude;pressure_sealevel;temperature;humidity
70954;BME280;58618;47.490;8.736;2023-03-22T00:00:58;96474.94;;;8.34;100.00
70954;BME280;58618;47.490;8.736;2023-03-22T00:03:47;96469.00;;;8.33;100.00
70954;BME280;58618;47.490;8.736;2023-03-22T00:06:35;96452.81;;;8.23;100.00
70954;BME280;58618;47.490;8.736;2023-03-22T00:09:22;96455.13;;;8.24;100.00
70954;BME280;58618;47.490;8.736;2023-03-22T00:12:09;96443.31;;;8.03;100.00
70954;BME280;58618;47.490;8.736;2023-03-22T00:14:57;96441.50;;;7.98;100.00
70954;BME280;58618;47.490;8.736;2023-03-22T00:17:46;96443.56;;;8.01;100.00
70954;BME280;58618;47.490;8.736;2023-03-22T00:20:35;96437.91;;;8.10;100.00
70954;BME280;58618;47.490;8.736;2023-03-22T00:23:25;96444.56;;;8.05;100.00
70954;BME280;58618;47.490;8.736;2023-03-22T00:26:13;96447.16;;;8.00;100.00
70954;BME280;58618;47.490;8.736;2023-03-22T00:29:00;96443.81;;;8.00;100.00
70954;BME280;58618;47.490;8.736;2023-03-22T00:31:47;96443.03;;;7.94;100.00
70954;BME280;58618;47.490;8.736;2023-03-22T00:34:38;96437.13;;;7.89;100.00
70954;BME280;58618;47.490;8.736;2023-03-22T00:37:25;96432.50;;;7.86;100.00
70954;BME280;58618;47.490;8.736;2023-03-22T00:40:19;96438.41;;;7.76;100.00
70954;BME280;58618;47.490;8.736;2023-03-22T00:43:06;96435.84;;;7.71;100.00
70954;BME280;58618;47.490;8.736;2023-03-22T00:45:53;96435.31;;;7.74;100.00
70954;BME280;58618;47.490;8.736;2023-03-22T00:48:41;96437.88;;;7.69;100.00
70954;BME280;58618;47.490;8.736;2023-03-22T00:51:30;96430.19;;;7.64;100.00
70954;BME280;58618;47.490;8.736;2023-03-22T00:54:17;96437.88;;;7.59;100.00
70954;BME280;58618;47.490;8.736;2023-03-22T00:57:05;96442.75;;;7.55;100.00
70954;BME280;58618;47.490;8.736;2023-03-22T00:59:52;96437.84;;;7.49;100.00
70954;BME280;58618;47.490;8.736;2023-03-22T01:02:41;96422.44;;;7.34;100.00
70954;BME280;58618;47.490;8.736;2023-03-22T01:05:29;96432.69;;;7.29;100.00
70954;BME280;58618;47.490;8.736;2023-03-22T01:08:19;96443.69;;;7.19;100.00
70954;BME280;58618;47.490;8.736;2023-03-22T01:11:08;96434.13;;;7.09;100.00
70954;BME280;58618;47.490;8.736;2023-03-22T01:13:55;96434.31;;;6.93;100.00
70954;BME280;58618;47.490;8.736;2023-03-22T01:16:42;96426.38;;;6.89;100.00
70954;BME280;58618;47.490;8.736;2023-03-22T01:19:30;96425.34;;;6.90;100.00
70954;BME280;58618;47.490;8.736;2023-03-22T01:22:17;96421.22;;;6.84;100.00
70954;BME280;58618;47.490;8.736;2023-03-22T01:25:07;96415.06;;;6.80;100.00
70954;BME280;58618;47.490;8.736;2023-03-22T01:27:55;96417.13;;;6.88;100.00
70954;BME280;58618;47.490;8.736;2023-03-22T01:30:42;96410.91;;;6.69;100.00
70954;BME280;58618;47.490;8.736;2023-03-22T01:33:30;96405.72;;;6.59;100.00
70954;BME280;58618;47.490;8.736;2023-03-22T01:36:17;96404.66;;;6.50;100.00
70954;BME280;58618;47.490;8.736;2023-03-22T01:39:04;96403.13;;;6.49;100.00
70954;BME280;58618;47.490;8.736;2023-03-22T01:41:53;96395.88;;;6.41;100.00
70954;BME280;58618;47.490;8.736;2023-03-22T01:44:42;96402.78;;;6.35;100.00
70954;BME280;58618;47.490;8.736;2023-03-22T01:47:32;96392.69;;;6.18;100.00
70954;BME280;58618;47.490;8.736;2023-03-22T01:50:20;96395.75;;;6.15;100.00
70954;BME280;58618;47.490;8.736;2023-03-22T01:53:10;96390.31;;;6.07;100.00
70954;BME280;58618;47.490;8.736;2023-03-22T01:55:59;96400.22;;;5.98;100.00
70954;BME280;58618;47.490;8.736;2023-03-22T01:58:49;96394.28;;;5.92;100.00
70954;BME280;58618;47.490;8.736;2023-03-22T02:01:39;96398.69;;;5.97;100.00
70954;BME280;58618;47.490;8.736;2023-03-22T02:04:29;96397.00;;;5.81;100.00
70954;BME280;58618;47.490;8.736;2023-03-22T02:07:19;96391.59;;;5.77;100.00
70954;BME280;58618;47.490;8.736;2023-03-22T02:10:15;96387.16;;;5.68;100.00
70954;BME280;58618;47.490;8.736;2023-03-22T02:16:23;96389.09;;;5.56;100.00
70954;BME280;58618;47.490;8.736;2023-03-22T02:19:31;96385.50;;;5.51;100.00
70954;BME280;58618;47.490;8.736;2023-03-22T02:26:17;96386.72;;;5.44;100.00
70954;BME280;58618;47.490;8.736;2023-03-22T02:29:22;96380.34;;;5.46;100.00
70954;BME280;58618;47.490;8.736;2023-03-22T02:32:45;96382.25;;;5.34;100.00
70954;BME280;58618;47.490;8.736;2023-03-22T02:35:45;96374.63;;;5.39;100.00
70954;BME280;58618;47.490;8.736;2023-03-22T02:39:06;96370.97;;;5.30;100.00
70954;BME280;58618;47.490;8.736;2023-03-22T02:42:21;96374.53;;;5.29;100.00
70954;BME280;58618;47.490;8.736;2023-03-22T02:45:12;96365.78;;;5.20;100.00
70954;BME280;58618;47.490;8.736;2023-03-22T02:48:05;96381.09;;;5.20;100.00
70954;BME280;58618;47.490;8.736;2023-03-22T02:50:58;96378.50;;;5.15;100.00
70954;BME280;58618;47.490;8.736;2023-03-22T02:53:50;96382.50;;;5.06;100.00
70954;BME280;58618;47.490;8.736;2023-03-22T02:56:44;96383.03;;;5.08;100.00
70954;BME280;58618;47.490;8.736;2023-03-22T02:59:35;96373.72;;;4.97;100.00
70954;BME280;58618;47.490;8.736;2023-03-22T03:02:25;96386.56;;;5.02;100.00
70954;BME280;58618;47.490;8.736;2023-03-22T03:05:16;96390.53;;;4.93;100.00
70954;BME280;58618;47.490;8.736;2023-03-22T03:08:05;96385.31;;;4.83;100.00
70954;BME280;58618;47.490;8.736;2023-03-22T03:10:54;96379.13;;;4.79;100.00
70954;BME280;58618;47.490;8.736;2023-03-22T03:13:45;96383.69;;;4.77;100.00
70954;BME280;58618;47.490;8.736;2023-03-22T03:16:33;96380.06;;;4.73;100.00
70954;BME280;58618;47.490;8.736;2023-03-22T03:19:26;96380.38;;;4.76;100.00
70954;BME280;58618;47.490;8.736;2023-03-22T03:22:31;96388.88;;;4.82;100.00
70954;BME280;58618;47.490;8.736;2023-03-22T03:25:24;96387.19;;;4.71;100.00
70954;BME280;58618;47.490;8.736;2023-03-22T03:28:16;96379.78;;;4.69;100.00
70954;BME280;58618;47.490;8.736;2023-03-22T03:31:26;96382.28;;;4.64;100.00
70954;BME280;58618;47.490;8.736;2023-03-22T03:34:17;96385.00;;;4.57;100.00
70954;BME280;58618;47.490;8.736;2023-03-22T03:37:08;96386.78;;;4.57;100.00
70954;BME280;58618;47.490;8.736;2023-03-22T03:39:59;96394.22;;;4.58;100.00
70954;BME280;58618;47.490;8.736;2023-03-22T03:42:53;96388.78;;;4.55;100.00
70954;BME280;58618;47.490;8.736;2023-03-22T03:45:43;96395.81;;;4.43;100.00
70954;BME280;58618;47.490;8.736;2023-03-22T03:48:34;96398.59;;;4.41;100.00
70954;BME280;58618;47.490;8.736;2023-03-22T03:51:23;96393.97;;;4.38;100.00
70954;BME280;58618;47.490;8.736;2023-03-22T03:54:12;96400.66;;;4.44;100.00
70954;BME280;58618;47.490;8.736;2023-03-22T03:56:59;96383.25;;;4.41;100.00
70954;BME280;58618;47.490;8.736;2023-03-22T03:59:47;96396.59;;;4.43;100.00
70954;BME280;58618;47.490;8.736;2023-03-22T04:02:35;96389.94;;;4.42;100.00
70954;BME280;58618;47.490;8.736;2023-03-22T04:05:23;96386.66;;;4.47;100.00
70954;BME280;58618;47.490;8.736;2023-03-22T04:08:11;96393.34;;;4.31;100.00
70954;BME280;58618;47.490;8.736;2023-03-22T04:10:58;96394.97;;;4.20;100.00
70954;BME280;58618;47.490;8.736;2023-03-22T04:13:45;96397.00;;;4.18;100.00
70954;BME280;58618;47.490;8.736;2023-03-22T04:16:32;96390.75;;;4.09;100.00
70954;BME280;58618;47.490;8.736;2023-03-22T04:19:20;96400.19;;;4.09;100.00
70954;BME280;58618;47.490;8.736;2023-03-22T04:22:08;96398.09;;;4.06;100.00
70954;BME280;58618;47.490;8.736;2023-03-22T04:24:59;96387.56;;;4.02;100.00
70954;BME280;58618;47.490;8.736;2023-03-22T04:27:47;96397.56;;;4.04;100.00
70954;BME280;58618;47.490;8.736;2023-03-22T04:30:36;96400.94;;;4.09;100.00
70954;BME280;58618;47.490;8.736;2023-03-22T04:33:23;96392.94;;;4.01;100.00
70954;BME280;58618;47.490;8.736;2023-03-22T04:36:11;96399.47;;;3.97;100.00
70954;BME280;58618;47.490;8.736;2023-03-22T04:39:03;96397.25;;;4.00;100.00
70954;BME280;58618;47.490;8.736;2023-03-22T04:41:50;96388.19;;;3.93;100.00
70954;BME280;58618;47.490;8.736;2023-03-22T04:44:38;96389.81;;;3.99;100.00
70954;BME280;58618;47.490;8.736;2023-03-22T04:47:25;96394.28;;;3.92;100.00
70954;BME280;58618;47.490;8.736;2023-03-22T04:50:13;96392.69;;;3.86;100.00
70954;BME280;58618;47.490;8.736;2023-03-22T04:53:00;96385.56;;;3.88;100.00
70954;BME280;58618;47.490;8.736;2023-03-22T04:55:49;96384.56;;;3.89;100.00
70954;BME280;58618;47.490;8.736;2023-03-22T04:58:38;96384.09;;;3.92;100.00
70954;BME280;58618;47.490;8.736;2023-03-22T05:01:26;96387.75;;;3.96;100.00
70954;BME280;58618;47.490;8.736;2023-03-22T05:04:13;96393.38;;;3.98;100.00
70954;BME280;58618;47.490;8.736;2023-03-22T05:07:00;96390.16;;;3.86;100.00
70954;BME280;58618;47.490;8.736;2023-03-22T05:09:47;96393.91;;;3.83;100.00
70954;BME280;58618;47.490;8.736;2023-03-22T05:12:36;96392.63;;;3.80;100.00
70954;BME280;58618;47.490;8.736;2023-03-22T05:15:24;96386.88;;;3.73;100.00
70954;BME280;58618;47.490;8.736;2023-03-22T05:18:12;96395.63;;;3.77;100.00
70954;BME280;58618;47.490;8.736;2023-03-22T05:21:00;96389.66;;;3.89;100.00
70954;BME280;58618;47.490;8.736;2023-03-22T05:23:51;96391.16;;;3.85;100.00
70954;BME280;58618;47.490;8.736;2023-03-22T05:26:39;96391.75;;;3.92;100.00
70954;BME280;58618;47.490;8.736;2023-03-22T05:29:28;96384.97;;;3.80;100.00
70954;BME280;58618;47.490;8.736;2023-03-22T05:32:21;96398.25;;;3.82;100.00
70954;BME280;58618;47.490;8.736;2023-03-22T05:35:10;96389.97;;;3.75;100.00
70954;BME280;58618;47.490;8.736;2023-03-22T05:37:59;96390.06;;;3.80;100.00
70954;BME280;58618;47.490;8.736;2023-03-22T05:40:46;96402.81;;;3.80;100.00
70954;BME280;58618;47.490;8.736;2023-03-22T05:43:34;96394.63;;;3.78;100.00
70954;BME280;58618;47.490;8.736;2023-03-22T05:46:22;96399.41;;;3.75;100.00
70954;BME280;58618;47.490;8.736;2023-03-22T05:49:10;96390.16;;;3.86;100.00
70954;BME280;58618;47.490;8.736;2023-03-22T05:51:57;96379.63;;;3.99;100.00
70954;BME280;58618;47.490;8.736;2023-03-22T05:54:44;96389.53;;;3.95;100.00
70954;BME280;58618;47.490;8.736;2023-03-22T05:57:32;96394.94;;;3.99;100.00
70954;BME280;58618;47.490;8.736;2023-03-22T06:00:19;96392.59;;;4.14;100.00
70954;BME280;58618;47.490;8.736;2023-03-22T06:03:10;96385.94;;;4.13;100.00
70954;BME280;58618;47.490;8.736;2023-03-22T06:05:57;96400.00;;;4.32;100.00
70954;BME280;58618;47.490;8.736;2023-03-22T06:08:45;96406.22;;;4.80;100.00
70954;BME280;58618;47.490;8.736;2023-03-22T06:11:33;96401.94;;;6.24;100.00
70954;BME280;58618;47.490;8.736;2023-03-22T06:14:20;96393.69;;;7.37;100.00
70954;BME280;58618;47.490;8.736;2023-03-22T06:17:08;96390.88;;;8.44;100.00
70954;BME280;58618;47.490;8.736;2023-03-22T06:19:58;96387.19;;;8.71;97.33
70954;BME280;58618;47.490;8.736;2023-03-22T06:22:46;96390.38;;;9.07;94.84
70954;BME280;58618;47.490;8.736;2023-03-22T06:25:33;96386.28;;;9.84;93.66
70954;BME280;58618;47.490;8.736;2023-03-22T06:28:21;96378.59;;;10.41;87.23
70954;BME280;58618;47.490;8.736;2023-03-22T06:31:08;96378.66;;;11.02;83.56
70954;BME280;58618;47.490;8.736;2023-03-22T06:33:56;96386.25;;;11.69;77.53
70954;BME280;58618;47.490;8.736;2023-03-22T06:36:44;96390.28;;;12.40;77.33
70954;BME280;58618;47.490;8.736;2023-03-22T06:39:32;96390.06;;;12.22;74.29
70954;BME280;58618;47.490;8.736;2023-03-22T06:42:19;96388.00;;;11.92;75.60
70954;BME280;58618;47.490;8.736;2023-03-22T06:45:07;96383.97;;;12.46;73.48
70954;BME280;58618;47.490;8.736;2023-03-22T06:47:55;96389.16;;;13.00;70.42
70954;BME280;58618;47.490;8.736;2023-03-22T06:50:49;96395.28;;;13.04;70.95
70954;BME280;58618;47.490;8.736;2023-03-22T06:53:39;96401.88;;;14.05;68.40
70954;BME280;58618;47.490;8.736;2023-03-22T06:56:26;96401.72;;;14.32;65.86
70954;BME280;58618;47.490;8.736;2023-03-22T06:59:14;96396.81;;;14.22;65.26
70954;BME280;58618;47.490;8.736;2023-03-22T07:02:02;96400.72;;;15.55;62.50
70954;BME280;58618;47.490;8.736;2023-03-22T07:04:49;96407.59;;;15.77;61.60
70954;BME280;58618;47.490;8.736;2023-03-22T07:07:37;96404.81;;;15.82;59.68
70954;BME280;58618;47.490;8.736;2023-03-22T07:10:25;96394.91;;;16.85;57.82
70954;BME280;58618;47.490;8.736;2023-03-22T07:13:13;96402.03;;;16.21;57.77
70954;BME280;58618;47.490;8.736;2023-03-22T07:16:01;96401.44;;;16.07;58.75
70954;BME280;58618;47.490;8.736;2023-03-22T07:18:48;96403.72;;;16.17;57.62
70954;BME280;58618;47.490;8.736;2023-03-22T07:21:36;96394.69;;;16.99;56.03
70954;BME280;58618;47.490;8.736;2023-03-22T07:24:23;96402.59;;;17.32;54.20
70954;BME280;58618;47.490;8.736;2023-03-22T07:27:12;96403.41;;;16.74;54.96
70954;BME280;58618;47.490;8.736;2023-03-22T07:29:59;96397.66;;;16.60;56.56
70954;BME280;58618;47.490;8.736;2023-03-22T07:32:47;96396.88;;;15.87;59.46
70954;BME280;58618;47.490;8.736;2023-03-22T07:35:35;96400.06;;;16.56;58.45
70954;BME280;58618;47.490;8.736;2023-03-22T07:38:22;96393.50;;;15.95;59.27
70954;BME280;58618;47.490;8.736;2023-03-22T07:41:09;96398.88;;;18.28;52.13
70954;BME280;58618;47.490;8.736;2023-03-22T07:43:58;96394.88;;;19.04;49.65
70954;BME280;58618;47.490;8.736;2023-03-22T07:46:46;96389.25;;;19.02;50.05
70954;BME280;58618;47.490;8.736;2023-03-22T07:49:36;96390.81;;;20.42;46.00
70954;BME280;58618;47.490;8.736;2023-03-22T07:52:23;96382.75;;;21.32;43.54
70954;BME280;58618;47.490;8.736;2023-03-22T07:55:12;96388.56;;;21.22;43.63
70954;BME280;58618;47.490;8.736;2023-03-22T07:58:00;96382.94;;;21.78;41.77
70954;BME280;58618;47.490;8.736;2023-03-22T08:00:49;96374.94;;;22.13;40.58
70954;BME280;58618;47.490;8.736;2023-03-22T08:03:36;96380.69;;;21.80;41.29
70954;BME280;58618;47.490;8.736;2023-03-22T08:06:24;96376.56;;;20.39;43.28
70954;BME280;58618;47.490;8.736;2023-03-22T08:09:11;96373.72;;;19.45;46.08
70954;BME280;58618;47.490;8.736;2023-03-22T08:11:58;96372.28;;;20.03;43.43
70954;BME280;58618;47.490;8.736;2023-03-22T08:14:46;96364.16;;;18.28;46.09
70954;BME280;58618;47.490;8.736;2023-03-22T08:17:37;96374.78;;;18.80;47.63
70954;BME280;58618;47.490;8.736;2023-03-22T08:20:25;96367.13;;;19.79;44.63
70954;BME280;58618;47.490;8.736;2023-03-22T08:23:12;96361.25;;;19.42;46.04
70954;BME280;58618;47.490;8.736;2023-03-22T08:26:01;96361.56;;;18.40;47.61
70954;BME280;58618;47.490;8.736;2023-03-22T08:28:48;96363.88;;;19.42;44.42
70954;BME280;58618;47.490;8.736;2023-03-22T08:31:36;96368.81;;;19.31;44.94
70954;BME280;58618;47.490;8.736;2023-03-22T08:34:24;96366.78;;;18.28;47.26
70954;BME280;58618;47.490;8.736;2023-03-22T08:37:12;96369.38;;;18.28;49.17
70954;BME280;58618;47.490;8.736;2023-03-22T08:39:59;96363.94;;;19.86;43.02
70954;BME280;58618;47.490;8.736;2023-03-22T08:42:47;96361.25;;;19.54;45.74
70954;BME280;58618;47.490;8.736;2023-03-22T08:45:34;96370.53;;;18.75;47.60
70954;BME280;58618;47.490;8.736;2023-03-22T08:48:22;96368.28;;;19.26;45.22
70954;BME280;58618;47.490;8.736;2023-03-22T08:51:11;96377.56;;;19.23;45.52
70954;BME280;58618;47.490;8.736;2023-03-22T08:54:00;96375.81;;;18.42;46.56
70954;BME280;58618;47.490;8.736;2023-03-22T08:56:49;96378.78;;;18.89;45.61
70954;BME280;58618;47.490;8.736;2023-03-22T08:59:36;96382.78;;;19.23;44.62
70954;BME280;58618;47.490;8.736;2023-03-22T09:02:24;96375.47;;;19.29;43.45
70954;BME280;58618;47.490;8.736;2023-03-22T09:05:11;96377.94;;;18.97;43.43
70954;BME280;58618;47.490;8.736;2023-03-22T09:08:01;96376.81;;;17.60;48.40
70954;BME280;58618;47.490;8.736;2023-03-22T09:10:50;96379.38;;;18.26;45.63
70954;BME280;58618;47.490;8.736;2023-03-22T09:13:38;96375.09;;;17.64;49.05
70954;BME280;58618;47.490;8.736;2023-03-22T09:16:25;96375.94;;;18.34;45.18
70954;BME280;58618;47.490;8.736;2023-03-22T09:19:13;96377.41;;;17.15;49.11
70954;BME280;58618;47.490;8.736;2023-03-22T09:22:00;96376.66;;;17.36;47.72
70954;BME280;58618;47.490;8.736;2023-03-22T09:24:49;96376.84;;;17.51;46.25
70954;BME280;58618;47.490;8.736;2023-03-22T09:27:36;96379.25;;;16.65;49.09
70954;BME280;58618;47.490;8.736;2023-03-22T09:30:23;96374.28;;;17.01;46.51
70954;BME280;58618;47.490;8.736;2023-03-22T09:33:11;96369.47;;;16.82;50.07
70954;BME280;58618;47.490;8.736;2023-03-22T09:35:58;96355.25;;;16.80;47.40
70954;BME280;58618;47.490;8.736;2023-03-22T09:38:47;96358.56;;;16.60;48.90
70954;BME280;58618;47.490;8.736;2023-03-22T09:41:39;96353.53;;;16.55;47.53
70954;BME280;58618;47.490;8.736;2023-03-22T09:44:30;96349.28;;;16.41;49.36
70954;BME280;58618;47.490;8.736;2023-03-22T09:47:28;96352.53;;;16.30;50.33
70954;BME280;58618;47.490;8.736;2023-03-22T09:50:19;96355.16;;;16.21;50.26
70954;BME280;58618;47.490;8.736;2023-03-22T09:53:10;96354.78;;;16.48;49.54
70954;BME280;58618;47.490;8.736;2023-03-22T09:56:06;96353.09;;;16.44;50.45
70954;BME280;58618;47.490;8.736;2023-03-22T09:59:06;96353.19;;;16.65;51.38
70954;BME280;58618;47.490;8.736;2023-03-22T10:01:59;96347.25;;;16.85;48.29
70954;BME280;58618;47.490;8.736;2023-03-22T10:04:55;96345.44;;;16.77;49.90
70954;BME280;58618;47.490;8.736;2023-03-22T10:08:01;96342.59;;;16.70;49.10
70954;BME280;58618;47.490;8.736;2023-03-22T10:10:51;96343.22;;;16.96;48.31
70954;BME280;58618;47.490;8.736;2023-03-22T10:13:43;96334.66;;;16.87;47.07
70954;BME280;58618;47.490;8.736;2023-03-22T10:16:37;96331.25;;;16.95;46.49
70954;BME280;58618;47.490;8.736;2023-03-22T10:19:28;96328.66;;;16.66;46.69
70954;BME280;58618;47.490;8.736;2023-03-22T10:22:20;96321.19;;;16.64;47.57
70954;BME280;58618;47.490;8.736;2023-03-22T10:25:16;96319.75;;;16.67;45.84
70954;BME280;58618;47.490;8.736;2023-03-22T10:28:16;96322.91;;;16.81;49.74
70954;BME280;58618;47.490;8.736;2023-03-22T10:31:08;96330.88;;;17.05;45.97
70954;BME280;58618;47.490;8.736;2023-03-22T10:34:03;96320.81;;;16.95;47.83
70954;BME280;58618;47.490;8.736;2023-03-22T10:36:52;96320.94;;;17.19;46.68
70954;BME280;58618;47.490;8.736;2023-03-22T10:39:41;96310.84;;;16.97;46.53
70954;BME280;58618;47.490;8.736;2023-03-22T10:42:29;96317.25;;;17.20;46.18
70954;BME280;58618;47.490;8.736;2023-03-22T10:45:18;96322.22;;;17.13;49.34
70954;BME280;58618;47.490;8.736;2023-03-22T10:48:12;96312.38;;;17.19;48.89
70954;BME280;58618;47.490;8.736;2023-03-22T10:51:02;96305.50;;;17.14;45.44
70954;BME280;58618;47.490;8.736;2023-03-22T10:53:53;96306.72;;;16.96;46.18
70954;BME280;58618;47.490;8.736;2023-03-22T10:56:41;96293.25;;;16.94;44.42
70954;BME280;58618;47.490;8.736;2023-03-22T10:59:44;96294.78;;;16.95;49.01
70954;BME280;58618;47.490;8.736;2023-03-22T11:02:32;96280.41;;;16.89;46.51
70954;BME280;58618;47.490;8.736;2023-03-22T11:05:22;96287.16;;;16.90;47.60
70954;BME280;58618;47.490;8.736;2023-03-22T11:08:13;96281.28;;;16.93;46.02
70954;BME280;58618;47.490;8.736;2023-03-22T11:11:04;96280.91;;;16.82;44.90
70954;BME280;58618;47.490;8.736;2023-03-22T11:13:55;96288.28;;;16.80;48.21
70954;BME280;58618;47.490;8.736;2023-03-22T11:16:52;96275.31;;;16.72;45.08
70954;BME280;58618;47.490;8.736;2023-03-22T11:19:49;96267.06;;;16.91;44.62
70954;BME280;58618;47.490;8.736;2023-03-22T11:22:39;96257.16;;;16.84;45.27
70954;BME280;58618;47.490;8.736;2023-03-22T11:25:30;96265.81;;;16.97;46.23
70954;BME280;58618;47.490;8.736;2023-03-22T11:28:20;96264.13;;;16.92;44.61
70954;BME280;58618;47.490;8.736;2023-03-22T11:31:09;96244.81;;;16.93;44.12
70954;BME280;58618;47.490;8.736;2023-03-22T11:33:59;96247.84;;;17.16;46.53
70954;BME280;58618;47.490;8.736;2023-03-22T11:36:47;96244.03;;;17.13;47.91
70954;BME280;58618;47.490;8.736;2023-03-22T11:39:45;96242.16;;;17.35;45.63
70954;BME280;58618;47.490;8.736;2023-03-22T11:42:34;96247.16;;;17.40;43.34
70954;BME280;58618;47.490;8.736;2023-03-22T11:45:26;96246.00;;;17.49;43.86
70954;BME280;58618;47.490;8.736;2023-03-22T11:48:16;96240.97;;;17.77;45.72
70954;BME280;58618;47.490;8.736;2023-03-22T11:51:07;96237.59;;;17.64;43.36
70954;BME280;58618;47.490;8.736;2023-03-22T11:54:00;96238.00;;;17.66;44.55
70954;BME280;58618;47.490;8.736;2023-03-22T11:56:50;96229.44;;;17.66;42.92
70954;BME280;58618;47.490;8.736;2023-03-22T11:59:46;96209.94;;;17.51;44.57
70954;BME280;58618;47.490;8.736;2023-03-22T12:02:37;96222.94;;;17.96;45.48
70954;BME280;58618;47.490;8.736;2023-03-22T12:05:28;96220.78;;;17.86;41.33
70954;BME280;58618;47.490;8.736;2023-03-22T12:08:20;96219.47;;;17.80;44.79
70954;BME280;58618;47.490;8.736;2023-03-22T12:11:15;96214.88;;;17.77;40.71
70954;BME280;58618;47.490;8.736;2023-03-22T12:14:07;96214.44;;;17.87;41.50
70954;BME280;58618;47.490;8.736;2023-03-22T12:17:04;96197.94;;;17.83;40.69
70954;BME280;58618;47.490;8.736;2023-03-22T12:19:58;96201.22;;;17.92;40.67
70954;BME280;58618;47.490;8.736;2023-03-22T12:22:52;96198.38;;;17.97;41.67
70954;BME280;58618;47.490;8.736;2023-03-22T12:25:42;96194.03;;;18.01;40.63
70954;BME280;58618;47.490;8.736;2023-03-22T12:28:34;96185.34;;;17.97;40.44
70954;BME280;58618;47.490;8.736;2023-03-22T12:31:29;96182.06;;;18.00;39.73
70954;BME280;58618;47.490;8.736;2023-03-22T12:34:21;96179.22;;;17.93;37.94
70954;BME280;58618;47.490;8.736;2023-03-22T12:37:14;96174.22;;;17.88;37.78
70954;BME280;58618;47.490;8.736;2023-03-22T12:40:06;96157.03;;;17.99;37.15
70954;BME280;58618;47.490;8.736;2023-03-22T12:43:01;96169.69;;;17.97;37.75
70954;BME280;58618;47.490;8.736;2023-03-22T12:45:57;96157.25;;;18.19;36.61
70954;BME280;58618;47.490;8.736;2023-03-22T12:48:47;96152.88;;;18.23;34.09
70954;BME280;58618;47.490;8.736;2023-03-22T12:51:37;96149.28;;;18.27;34.48
70954;BME280;58618;47.490;8.736;2023-03-22T12:54:26;96156.81;;;18.29;38.07
70954;BME280;58618;47.490;8.736;2023-03-22T12:57:15;96146.78;;;18.31;36.21
70954;BME280;58618;47.490;8.736;2023-03-22T13:00:04;96142.44;;;18.23;34.16
70954;BME280;58618;47.490;8.736;2023-03-22T13:02:58;96147.41;;;18.40;36.03
70954;BME280;58618;47.490;8.736;2023-03-22T13:05:48;96137.63;;;18.37;35.92
70954;BME280;58618;47.490;8.736;2023-03-22T13:09:09;96143.91;;;18.48;35.24
70954;BME280;58618;47.490;8.736;2023-03-22T13:12:29;96146.50;;;18.48;36.93
70954;BME280;58618;47.490;8.736;2023-03-22T13:15:29;96145.44;;;18.61;36.42
70954;BME280;58618;47.490;8.736;2023-03-22T13:18:29;96143.81;;;18.44;36.02
70954;BME280;58618;47.490;8.736;2023-03-22T13:21:19;96138.69;;;18.48;37.23
70954;BME280;58618;47.490;8.736;2023-03-22T13:24:22;96134.53;;;18.47;37.92
70954;BME280;58618;47.490;8.736;2023-03-22T13:27:11;96128.41;;;18.67;37.94
70954;BME280;58618;47.490;8.736;2023-03-22T13:30:00;96123.84;;;18.64;35.34
70954;BME280;58618;47.490;8.736;2023-03-22T13:32:52;96115.19;;;18.36;37.31
70954;BME280;58618;47.490;8.736;2023-03-22T13:35:43;96118.47;;;18.45;37.87
70954;BME280;58618;47.490;8.736;2023-03-22T13:38:32;96125.19;;;18.58;38.30
70954;BME280;58618;47.490;8.736;2023-03-22T13:41:27;96100.59;;;18.47;35.72
70954;BME280;58618;47.490;8.736;2023-03-22T13:44:26;96109.25;;;18.63;36.30
70954;BME280;58618;47.490;8.736;2023-03-22T13:47:35;96101.63;;;18.70;34.58
70954;BME280;58618;47.490;8.736;2023-03-22T13:50:27;96109.38;;;18.82;37.63
70954;BME280;58618;47.490;8.736;2023-03-22T13:53:18;96106.59;;;18.75;35.39
70954;BME280;58618;47.490;8.736;2023-03-22T13:56:10;96105.84;;;18.75;34.31
70954;BME280;58618;47.490;8.736;2023-03-22T13:59:01;96100.94;;;18.73;35.55
70954;BME280;58618;47.490;8.736;2023-03-22T14:01:51;96096.72;;;18.69;33.75
70954;BME280;58618;47.490;8.736;2023-03-22T14:04:43;96105.09;;;18.74;37.61
70954;BME280;58618;47.490;8.736;2023-03-22T14:07:36;96093.94;;;18.77;33.99
70954;BME280;58618;47.490;8.736;2023-03-22T14:10:32;96090.25;;;18.78;34.46
70954;BME280;58618;47.490;8.736;2023-03-22T14:13:28;96089.72;;;18.73;34.08
70954;BME280;58618;47.490;8.736;2023-03-22T14:16:30;96088.63;;;18.74;34.73
70954;BME280;58618;47.490;8.736;2023-03-22T14:19:21;96078.28;;;18.77;32.76
70954;BME280;58618;47.490;8.736;2023-03-22T14:22:13;96071.34;;;18.69;34.47
70954;BME280;58618;47.490;8.736;2023-03-22T14:25:06;96068.31;;;18.67;33.20
70954;BME280;58618;47.490;8.736;2023-03-22T14:27:54;96073.69;;;18.59;33.74
70954;BME280;58618;47.490;8.736;2023-03-22T14:30:42;96062.16;;;18.60;34.08
70954;BME280;58618;47.490;8.736;2023-03-22T14:33:31;96054.84;;;18.65;33.95
70954;BME280;58618;47.490;8.736;2023-03-22T14:36:27;96073.28;;;18.72;35.34
70954;BME280;58618;47.490;8.736;2023-03-22T14:39:20;96061.75;;;18.73;35.52
70954;BME280;58618;47.490;8.736;2023-03-22T14:42:16;96051.41;;;18.77;33.26
70954;BME280;58618;47.490;8.736;2023-03-22T14:45:06;96047.53;;;18.86;35.14
70954;BME280;58618;47.490;8.736;2023-03-22T14:47:53;96047.78;;;18.81;32.66
70954;BME280;58618;47.490;8.736;2023-03-22T14:50:47;96043.13;;;18.75;32.87
70954;BME280;58618;47.490;8.736;2023-03-22T14:53:37;96047.41;;;18.67;32.14
70954;BME280;58618;47.490;8.736;2023-03-22T14:56:28;96051.72;;;18.75;34.53
70954;BME280;58618;47.490;8.736;2023-03-22T14:59:18;96042.38;;;18.74;31.97
70954;BME280;58618;47.490;8.736;2023-03-22T15:02:16;96034.00;;;18.69;34.25
70954;BME280;58618;47.490;8.736;2023-03-22T15:05:11;96039.81;;;18.62;35.49
70954;BME280;58618;47.490;8.736;2023-03-22T15:08:07;96036.78;;;18.60;33.70
70954;BME280;58618;47.490;8.736;2023-03-22T15:10:58;96018.84;;;18.59;35.83